Gayville, New York
Current Conditions -  °F | °C
As of 2:54 AM on Monday 29 Dec 2014 (Local Time) from KSYR Reporting Station
Scattered Clouds Scattered Clouds  
Wind Chill: 21°   Ceiling: Unl
Heat Index: 30°   Visibility: 10mi
Dew Point: 24°   Wind: 12mph
Humidity: 79%   Direction: 250°WSW
Pressure: 30.12"   Gusts: NA
Location:  43.2999°N, 76.0002°W
Report Text: KSYR 290754Z 25010KT 10SM SCT050 M01/M04 A3012 RMK AO2 SLP202 T10111044
Loading
Personal Weather Stations






























Interactive Weather Map New forecast layout! Learn more

10-Day Weather Forecast

Advertisements
Track Severe Weather on mobile